createdAt,value
2022-12-17T00:00:06.277Z,76.8
2022-12-17T00:01:09.494Z,77
2022-12-17T00:02:12.553Z,77.1
2022-12-17T00:03:16.215Z,77.2
2022-12-17T00:04:20.493Z,77.1
2022-12-17T00:05:24.485Z,76.9
2022-12-17T00:06:26.903Z,77.2
2022-12-17T00:07:29.499Z,77.4
2022-12-17T00:08:32.373Z,77.4
2022-12-17T00:09:34.866Z,77.2
2022-12-17T00:10:38.258Z,76.9
2022-12-17T00:11:41.513Z,76.8
2022-12-17T00:12:43.457Z,76.9
2022-12-17T00:13:46.887Z,77.2
2022-12-17T00:14:49.744Z,77.5
2022-12-17T00:15:52.776Z,77.3
2022-12-17T00:16:57.386Z,77.1
2022-12-17T00:17:59.914Z,77
2022-12-17T00:19:02.434Z,77
2022-12-17T00:20:05.284Z,77
2022-12-17T00:21:10.318Z,76.8
2022-12-17T00:22:12.924Z,76.7
2022-12-17T00:23:16.524Z,76.6
2022-12-17T00:24:19.630Z,76.6
2022-12-17T00:25:22.355Z,76.7
2022-12-17T00:26:25.160Z,76.6
2022-12-17T00:27:27.034Z,76.4
2022-12-17T00:28:30.086Z,76.4
2022-12-17T00:29:32.511Z,76.4
2022-12-17T00:30:35.773Z,76.4
2022-12-17T00:31:38.503Z,76.3
2022-12-17T00:32:41.559Z,76.5
2022-12-17T00:33:44.815Z,76.5
2022-12-17T00:34:47.758Z,76.5
2022-12-17T00:35:50.793Z,76.6
2022-12-17T00:36:56.705Z,76.6
2022-12-17T00:37:59.404Z,76.6
2022-12-17T00:39:02.209Z,76.5
2022-12-17T00:40:04.646Z,76.5
2022-12-17T00:41:06.783Z,76.6
2022-12-17T00:42:10.938Z,76.6
2022-12-17T00:43:13.642Z,76.6
2022-12-17T00:44:16.345Z,76.6
2022-12-17T00:45:19.201Z,76.6
2022-12-17T00:46:22.006Z,76.7
2022-12-17T00:47:24.720Z,76.8
2022-12-17T00:48:28.154Z,76.8
2022-12-17T00:49:31.408Z,77
2022-12-17T00:50:33.557Z,77.3
2022-12-17T00:51:37.041Z,77.1
2022-12-17T00:52:40.895Z,76.8
2022-12-17T00:53:44.326Z,76.7
2022-12-17T00:54:47.654Z,76.6
2022-12-17T00:55:50.483Z,76.2
2022-12-17T00:56:56.716Z,76
2022-12-17T00:57:59.698Z,76
2022-12-17T00:59:02.342Z,75.9
2022-12-17T01:00:05.462Z,75.9
2022-12-17T01:01:08.497Z,76.2
2022-12-17T01:02:12.575Z,76.4
2022-12-17T01:03:16.889Z,76.5
2022-12-17T01:04:20.852Z,76.6
2022-12-17T01:05:24.080Z,76.7
2022-12-17T01:06:26.993Z,77.2
2022-12-17T01:07:29.883Z,77.2
2022-12-17T01:08:33.948Z,77.7
2022-12-17T01:09:36.711Z,77.6
2022-12-17T01:10:39.004Z,76.8
2022-12-17T01:11:41.707Z,76.4
2022-12-17T01:12:44.196Z,76
2022-12-17T01:13:47.817Z,76
2022-12-17T01:14:51.171Z,75.8
2022-12-17T01:15:58.198Z,75.6
2022-12-17T01:17:01.542Z,75.6
2022-12-17T01:18:04.245Z,75.6
2022-12-17T01:19:07.593Z,75.6
2022-12-17T01:20:10.658Z,75.7
2022-12-17T01:21:13.355Z,75.7
2022-12-17T01:22:16.126Z,75.7
2022-12-17T01:23:19.170Z,75.7
2022-12-17T01:24:23.025Z,75.6
2022-12-17T01:25:25.464Z,75.5
2022-12-17T01:26:28.594Z,75.4
2022-12-17T01:27:31.091Z,75.5
2022-12-17T01:28:34.167Z,75.4
2022-12-17T01:29:37.288Z,75.3
2022-12-17T01:30:39.993Z,75.3
2022-12-17T01:31:43.489Z,75.2
2022-12-17T01:32:46.131Z,75.3
2022-12-17T01:33:49.373Z,75.5
2022-12-17T01:34:51.863Z,75.6
2022-12-17T01:35:55.203Z,75.7
2022-12-17T01:36:59.827Z,75.7
2022-12-17T01:38:02.883Z,75.8
2022-12-17T01:39:06.619Z,75.9
2022-12-17T01:40:10.732Z,76
2022-12-17T01:41:13.780Z,76
2022-12-17T01:42:15.712Z,76.1
2022-12-17T01:43:18.592Z,76.1
2022-12-17T01:44:21.099Z,76.1
2022-12-17T01:45:24.177Z,76.1
2022-12-17T01:46:27.696Z,76.1
2022-12-17T01:47:30.397Z,76.1
2022-12-17T01:48:33.527Z,76.1
2022-12-17T01:49:36.311Z,76.2
2022-12-17T01:50:38.888Z,76.3
2022-12-17T01:51:41.938Z,76.4
2022-12-17T01:52:44.708Z,76.5
2022-12-17T01:53:48.415Z,76.7
2022-12-17T01:54:51.186Z,77.2
2022-12-17T01:55:54.942Z,77.7
2022-12-17T01:56:58.276Z,77.7
2022-12-17T01:58:01.359Z,77.8
2022-12-17T01:59:03.856Z,78.1
2022-12-17T02:00:06.281Z,78.8
2022-12-17T02:01:10.008Z,79.3
2022-12-17T02:02:14.112Z,79.4
2022-12-17T02:03:18.375Z,79.1
2022-12-17T02:04:21.204Z,79.2
2022-12-17T02:05:24.319Z,79.2
2022-12-17T02:06:27.637Z,78.7
2022-12-17T02:07:30.905Z,78.2
2022-12-17T02:08:33.661Z,77.9
2022-12-17T02:09:36.072Z,77.4
2022-12-17T02:10:39.860Z,77
2022-12-17T02:11:43.945Z,76.9
2022-12-17T02:12:47.318Z,76.6
2022-12-17T02:13:50.096Z,77.1
2022-12-17T02:14:52.837Z,77.7
2022-12-17T02:15:56.227Z,77
2022-12-17T02:16:58.924Z,76.8
2022-12-17T02:18:01.899Z,76.7
2022-12-17T02:19:05.308Z,76.6
2022-12-17T02:20:08.352Z,76.3
2022-12-17T02:21:11.050Z,76.1
2022-12-17T02:22:14.662Z,76.2
2022-12-17T02:23:17.642Z,76.4
2022-12-17T02:24:20.133Z,76.5
2022-12-17T02:25:23.190Z,76.4
2022-12-17T02:26:26.375Z,76.5
2022-12-17T02:27:30.489Z,76.4
2022-12-17T02:28:33.446Z,76.5
2022-12-17T02:29:36.254Z,76.5
2022-12-17T02:30:38.742Z,76.4
2022-12-17T02:31:41.992Z,76.5
2022-12-17T02:32:45.017Z,76.9
2022-12-17T02:33:48.080Z,77.2
2022-12-17T02:34:50.519Z,77.3
2022-12-17T02:35:53.281Z,77.2
2022-12-17T02:36:56.058Z,77.1
2022-12-17T02:37:58.837Z,77.1
2022-12-17T02:39:01.911Z,77.2
2022-12-17T02:40:04.835Z,77.6
2022-12-17T02:41:08.555Z,77.9
2022-12-17T02:42:11.737Z,78.5
2022-12-17T02:43:15.838Z,78.6
2022-12-17T02:44:18.998Z,78.6
2022-12-17T02:45:22.125Z,78.7
2022-12-17T02:46:24.541Z,78.9
2022-12-17T02:47:26.861Z,79
2022-12-17T02:48:29.671Z,78.9
2022-12-17T02:49:32.595Z,78.5
2022-12-17T02:50:35.648Z,77.9
2022-12-17T02:51:38.906Z,77.5
2022-12-17T02:52:41.599Z,78.3
2022-12-17T02:53:44.927Z,78.5
2022-12-17T02:54:48.295Z,78.6
2022-12-17T02:55:51.350Z,78.9
2022-12-17T02:56:53.920Z,78.8
2022-12-17T02:57:57.689Z,78.4
2022-12-17T02:59:01.483Z,77.9
2022-12-17T03:00:03.909Z,77.7
2022-12-17T03:01:07.171Z,77.1
2022-12-17T03:02:10.959Z,76.9
2022-12-17T03:03:14.877Z,76.7
2022-12-17T03:04:17.787Z,76.6
2022-12-17T03:05:46.594Z,76.6
2022-12-17T03:06:49.331Z,76.6
2022-12-17T03:07:52.754Z,76.6
2022-12-17T03:08:56.151Z,76.8
2022-12-17T03:09:59.207Z,77.1
2022-12-17T03:11:02.339Z,77.2
2022-12-17T03:12:06.065Z,77
2022-12-17T03:13:09.298Z,76.6
2022-12-17T03:14:13.423Z,76.5
2022-12-17T03:15:16.173Z,76.2
2022-12-17T03:16:19.357Z,76.3
2022-12-17T03:17:21.689Z,76
2022-12-17T03:18:24.944Z,75.9
2022-12-17T03:19:27.445Z,75.8
2022-12-17T03:20:29.597Z,75.7
2022-12-17T03:21:31.823Z,75.7
2022-12-17T03:22:34.117Z,75.8
2022-12-17T03:23:38.770Z,75.7
2022-12-17T03:24:42.607Z,75.7
2022-12-17T03:25:45.672Z,75.8
2022-12-17T03:26:48.725Z,75.8
2022-12-17T03:27:52.709Z,75.9
2022-12-17T03:28:56.390Z,75.9
2022-12-17T03:30:00.637Z,75.8
2022-12-17T03:31:03.675Z,75.8
2022-12-17T03:32:06.602Z,75.9
2022-12-17T03:33:09.463Z,76
2022-12-17T03:34:12.038Z,76.2
2022-12-17T03:35:15.334Z,76.3
2022-12-17T03:36:18.458Z,76.3
2022-12-17T03:37:20.656Z,76.2
2022-12-17T03:38:23.697Z,76.1
2022-12-17T03:39:26.212Z,76.2
2022-12-17T03:40:29.348Z,76.2
2022-12-17T03:41:32.580Z,76.2
2022-12-17T03:42:35.556Z,76.3
2022-12-17T03:43:39.582Z,76.3
2022-12-17T03:44:42.692Z,76.3
2022-12-17T03:45:47.020Z,76.4
2022-12-17T03:46:49.917Z,76.3
2022-12-17T03:47:52.141Z,76.2
2022-12-17T03:48:55.074Z,76.4
2022-12-17T03:49:58.133Z,76.8
2022-12-17T03:51:00.988Z,76.8
2022-12-17T03:52:03.763Z,77.1
2022-12-17T03:53:06.532Z,77.1
2022-12-17T03:54:09.604Z,76.9
2022-12-17T03:55:13.081Z,76.8
2022-12-17T03:56:15.302Z,76.9
2022-12-17T03:57:17.799Z,76.9
2022-12-17T03:58:20.602Z,76.8
2022-12-17T03:59:23.852Z,76.9
2022-12-17T04:00:27.163Z,76.9
2022-12-17T04:01:32.011Z,76.8
2022-12-17T04:02:36.735Z,77
2022-12-17T04:03:41.342Z,77.2
2022-12-17T04:04:44.876Z,77.3
2022-12-17T04:05:47.726Z,77.4
2022-12-17T04:06:51.340Z,77.5
2022-12-17T04:07:54.133Z,77.4
2022-12-17T04:08:56.902Z,77.1
2022-12-17T04:10:00.601Z,77
2022-12-17T04:11:04.338Z,76.8
2022-12-17T04:12:08.050Z,76.3
2022-12-17T04:13:10.572Z,76.1
2022-12-17T04:14:13.562Z,76
2022-12-17T04:15:15.793Z,76.6
2022-12-17T04:16:18.304Z,76.2
2022-12-17T04:17:22.377Z,75.9
2022-12-17T04:18:25.853Z,75.6
2022-12-17T04:19:29.466Z,75.8
2022-12-17T04:20:32.508Z,76.4
2022-12-17T04:21:35.565Z,76.9
2022-12-17T04:22:38.343Z,76.7
2022-12-17T04:23:41.664Z,76.5
2022-12-17T04:24:44.228Z,76.6
2022-12-17T04:25:47.271Z,76.5
2022-12-17T04:26:50.326Z,76.5
2022-12-17T04:27:53.763Z,76.4
2022-12-17T04:28:55.718Z,76.3
2022-12-17T04:29:58.207Z,76.2
2022-12-17T04:31:00.967Z,76.1
2022-12-17T04:32:03.810Z,76.7
2022-12-17T04:33:07.870Z,77
2022-12-17T04:34:10.284Z,77.1
2022-12-17T04:35:13.401Z,76.8
2022-12-17T04:36:15.820Z,76.9
2022-12-17T04:37:18.518Z,77.2
2022-12-17T04:38:21.498Z,77.3
2022-12-17T04:39:24.194Z,77.1
2022-12-17T04:40:26.488Z,76.8
2022-12-17T04:41:29.037Z,76.6
2022-12-17T04:42:31.806Z,76.5
2022-12-17T04:43:36.369Z,76.9
2022-12-17T04:44:39.768Z,77.5
2022-12-17T04:45:43.040Z,77.7
2022-12-17T04:46:46.324Z,77.7
2022-12-17T04:47:49.071Z,77.4
2022-12-17T04:48:53.121Z,76.9
2022-12-17T04:49:56.169Z,76.6
2022-12-17T04:50:58.936Z,76.5
2022-12-17T04:52:02.061Z,76.5
2022-12-17T04:53:04.613Z,76.9
2022-12-17T04:54:07.752Z,77.3
2022-12-17T04:55:11.139Z,77
2022-12-17T04:56:13.627Z,76.7
2022-12-17T04:57:16.292Z,76.5
2022-12-17T04:58:18.816Z,76.5
2022-12-17T04:59:21.241Z,76.5
2022-12-17T05:00:24.034Z,76.3
2022-12-17T05:01:27.356Z,76.2
2022-12-17T05:02:31.554Z,76.2
2022-12-17T05:03:37.927Z,76.5
2022-12-17T05:04:43.738Z,76.5
2022-12-17T05:05:46.434Z,76.5
2022-12-17T05:06:49.509Z,76.4
2022-12-17T05:07:52.640Z,76.3
2022-12-17T05:08:55.620Z,76.4
2022-12-17T05:09:58.743Z,76.6
2022-12-17T05:11:02.097Z,76.7
2022-12-17T05:12:04.980Z,76.8
2022-12-17T05:13:08.043Z,76.6
2022-12-17T05:14:10.613Z,76.6
2022-12-17T05:15:13.744Z,76.6
2022-12-17T05:16:16.631Z,76.8
2022-12-17T05:17:18.682Z,76.8
2022-12-17T05:18:21.527Z,76.7
2022-12-17T05:19:24.581Z,76.6
2022-12-17T05:20:28.675Z,76.3
2022-12-17T05:21:34.170Z,75.8
2022-12-17T05:22:36.593Z,75.4
2022-12-17T05:23:39.889Z,75.4
2022-12-17T05:24:42.455Z,75.3
2022-12-17T05:25:45.519Z,75.4
2022-12-17T05:26:47.803Z,75.5
2022-12-17T05:27:50.845Z,75.4
2022-12-17T05:28:53.809Z,75.4
2022-12-17T05:29:56.895Z,75.7
2022-12-17T05:31:00.210Z,76
2022-12-17T05:32:03.131Z,76.1
2022-12-17T05:33:06.401Z,76.2
2022-12-17T05:34:09.097Z,76.5
2022-12-17T05:35:13.344Z,76.9
2022-12-17T05:36:17.164Z,77
2022-12-17T05:37:20.942Z,77.1
2022-12-17T05:38:23.993Z,77.2
2022-12-17T05:39:26.839Z,76.7
2022-12-17T05:40:29.919Z,76.1
2022-12-17T05:41:33.565Z,76
2022-12-17T05:42:35.982Z,76
2022-12-17T05:43:40.302Z,75.7
2022-12-17T05:44:43.003Z,75.6
2022-12-17T05:45:45.859Z,75.6
2022-12-17T05:46:48.711Z,75.7
2022-12-17T05:47:51.678Z,75.7
2022-12-17T05:48:55.110Z,75.5
2022-12-17T05:49:57.872Z,75.5
2022-12-17T05:51:00.910Z,75.5
2022-12-17T05:52:05.066Z,75.6
2022-12-17T05:53:08.421Z,76.2
2022-12-17T05:54:11.272Z,76.4
2022-12-17T05:55:13.972Z,76.3
2022-12-17T05:56:17.329Z,76.1
2022-12-17T05:57:19.577Z,76
2022-12-17T05:58:22.946Z,75.9
2022-12-17T05:59:26.097Z,75.9
2022-12-17T06:00:28.592Z,75.9
2022-12-17T06:01:31.808Z,76.2
2022-12-17T06:02:35.292Z,76.5
2022-12-17T06:03:41.571Z,76.7
2022-12-17T06:04:46.040Z,76.7
2022-12-17T06:05:49.113Z,76.6
2022-12-17T06:06:54.543Z,76.3
2022-12-17T06:07:58.360Z,76.3
2022-12-17T06:09:01.060Z,76.2
2022-12-17T06:10:03.375Z,76
2022-12-17T06:11:06.465Z,75.9
2022-12-17T06:12:09.271Z,75.8
2022-12-17T06:13:12.051Z,75.5
2022-12-17T06:14:14.820Z,75.5
2022-12-17T06:15:17.589Z,75.3
2022-12-17T06:16:21.708Z,75.2
2022-12-17T06:17:25.101Z,75.2
2022-12-17T06:18:27.877Z,75.3
2022-12-17T06:19:30.930Z,75.4
2022-12-17T06:20:33.787Z,75.4
2022-12-17T06:21:36.654Z,75.5
2022-12-17T06:22:39.884Z,75.6
2022-12-17T06:23:43.665Z,76
2022-12-17T06:24:47.196Z,76
2022-12-17T06:25:49.894Z,75.8
2022-12-17T06:26:52.661Z,75.8
2022-12-17T06:27:56.070Z,75.8
2022-12-17T06:28:58.848Z,75.8
2022-12-17T06:30:02.275Z,75.9
2022-12-17T06:31:05.537Z,75.9
2022-12-17T06:32:08.395Z,75.7
2022-12-17T06:33:10.816Z,75.6
2022-12-17T06:34:13.668Z,75.7
2022-12-17T06:35:16.365Z,75.8
2022-12-17T06:36:23.880Z,75.8
2022-12-17T06:37:27.207Z,75.7
2022-12-17T06:38:30.512Z,75.6
2022-12-17T06:39:34.634Z,75.5
2022-12-17T06:40:37.698Z,75.6
2022-12-17T06:41:40.467Z,75.7
2022-12-17T06:42:43.389Z,75.8
2022-12-17T06:43:46.842Z,75.8
2022-12-17T06:44:49.415Z,75.9
2022-12-17T06:45:52.843Z,75.8
2022-12-17T06:46:57.145Z,76
2022-12-17T06:48:00.471Z,76
2022-12-17T06:49:03.533Z,76.1
2022-12-17T06:50:06.604Z,76.2
2022-12-17T06:51:09.962Z,76.1
2022-12-17T06:52:13.033Z,76.1
2022-12-17T06:53:16.462Z,76.3
2022-12-17T06:54:19.227Z,76.5
2022-12-17T06:55:22.760Z,76.7
2022-12-17T06:56:25.176Z,76.8
2022-12-17T06:57:28.599Z,76.8
2022-12-17T06:58:31.400Z,76.9
2022-12-17T06:59:34.478Z,77
2022-12-17T07:00:37.994Z,77
2022-12-17T07:01:41.568Z,77
2022-12-17T07:02:44.915Z,76.9
2022-12-17T07:03:47.663Z,76.9
2022-12-17T07:04:50.194Z,76.9
2022-12-17T07:05:52.612Z,76.8
2022-12-17T07:06:55.949Z,76.8
2022-12-17T07:07:58.548Z,76.8
2022-12-17T07:09:01.246Z,76.8
2022-12-17T07:10:14.039Z,76.8
2022-12-17T07:11:18.208Z,76.8
2022-12-17T07:12:21.619Z,76.8
2022-12-17T07:13:24.948Z,76.9
2022-12-17T07:14:28.007Z,76.8
2022-12-17T07:15:30.715Z,76.8
2022-12-17T07:16:34.064Z,76.8
2022-12-17T07:17:37.420Z,76.8
2022-12-17T07:18:40.192Z,77
2022-12-17T07:19:43.541Z,77.1
2022-12-17T07:20:46.342Z,77.3
2022-12-17T07:21:48.836Z,77.5
2022-12-17T07:22:51.969Z,77.6
2022-12-17T07:23:55.301Z,77.8
2022-12-17T07:24:58.361Z,77.8
2022-12-17T07:26:01.477Z,77.8
2022-12-17T07:27:05.988Z,77.7
2022-12-17T07:28:09.057Z,77.6
2022-12-17T07:29:12.034Z,77.6
2022-12-17T07:30:14.825Z,77.6
2022-12-17T07:31:17.596Z,77.6
2022-12-17T07:32:20.467Z,77.6
2022-12-17T07:33:24.104Z,77.5
2022-12-17T07:34:27.435Z,77.6
2022-12-17T07:35:30.210Z,77.6
2022-12-17T07:36:33.341Z,77.6
2022-12-17T07:37:35.759Z,77.5
2022-12-17T07:38:38.605Z,77.5
2022-12-17T07:39:41.714Z,77.5
2022-12-17T07:40:44.697Z,77.6
2022-12-17T07:41:47.821Z,77.7
2022-12-17T07:42:51.589Z,77.7
2022-12-17T07:43:54.876Z,77.7
2022-12-17T07:44:57.655Z,79.2
2022-12-17T07:46:01.107Z,80
2022-12-17T07:47:04.132Z,79.2
2022-12-17T07:48:07.530Z,78.1
2022-12-17T07:49:11.735Z,77.8
2022-12-17T07:50:14.528Z,77.6
2022-12-17T07:51:17.014Z,77.5
2022-12-17T07:52:19.512Z,77.4
2022-12-17T07:53:22.843Z,77.2
2022-12-17T07:54:25.997Z,77
2022-12-17T07:55:29.056Z,76.8
2022-12-17T07:56:32.565Z,76.6
2022-12-17T07:57:35.666Z,76.6
2022-12-17T07:58:39.225Z,76.8
2022-12-17T07:59:42.838Z,76.9
2022-12-17T08:00:50.458Z,76.9
2022-12-17T08:01:54.666Z,77
2022-12-17T08:02:58.511Z,77
2022-12-17T08:04:01.225Z,76.9
2022-12-17T08:05:04.584Z,76.9
2022-12-17T08:06:07.533Z,76.9
2022-12-17T08:07:14.867Z,77
2022-12-17T08:08:17.942Z,77
2022-12-17T08:09:20.986Z,76.9
2022-12-17T08:10:23.763Z,76.9
2022-12-17T08:11:26.332Z,76.9
2022-12-17T08:12:30.034Z,76.8
2022-12-17T08:13:32.939Z,76.8
2022-12-17T08:14:37.967Z,76.8
2022-12-17T08:15:40.402Z,76.8
2022-12-17T08:16:43.592Z,76.8
2022-12-17T08:17:46.942Z,76.8
2022-12-17T08:18:50.394Z,76.9
2022-12-17T08:19:53.442Z,76.9
2022-12-17T08:20:55.945Z,76.9
2022-12-17T08:21:59.007Z,76.9
2022-12-17T08:23:01.857Z,77
2022-12-17T08:24:05.549Z,77.4
2022-12-17T08:25:08.662Z,77.7
2022-12-17T08:26:12.083Z,77.7
2022-12-17T08:27:15.513Z,77.6
2022-12-17T08:28:52.048Z,77.6
2022-12-17T08:29:57.763Z,77.8
2022-12-17T08:31:01.085Z,78
2022-12-17T08:32:04.129Z,78.6
2022-12-17T08:33:06.698Z,79.1
2022-12-17T08:34:09.937Z,78.9
2022-12-17T08:35:12.716Z,79
2022-12-17T08:36:15.462Z,79.3
2022-12-17T08:37:18.155Z,79.3
2022-12-17T08:38:20.714Z,78.6
2022-12-17T08:39:23.498Z,78.7
2022-12-17T08:40:26.335Z,78.3
2022-12-17T08:41:28.836Z,77.9
2022-12-17T08:42:31.705Z,77.7
2022-12-17T08:43:35.919Z,77.9
2022-12-17T08:44:40.616Z,77.9
2022-12-17T08:45:44.775Z,80.6
2022-12-17T08:46:47.645Z,82.3
2022-12-17T08:47:51.072Z,81.2
2022-12-17T08:48:54.240Z,80.3
2022-12-17T08:49:56.107Z,80.1
2022-12-17T08:50:58.806Z,79.9
2022-12-17T08:52:01.856Z,79.8
2022-12-17T08:53:04.342Z,80.3
2022-12-17T08:54:07.396Z,80.4
2022-12-17T08:55:10.270Z,83
2022-12-17T08:56:13.253Z,82.5
2022-12-17T08:57:33.296Z,81.6
2022-12-17T08:58:36.566Z,80.9
2022-12-17T08:59:39.503Z,81.1
2022-12-17T09:00:42.903Z,81.2
2022-12-17T09:01:47.408Z,81.2
2022-12-17T09:02:50.930Z,80.7
2022-12-17T09:03:54.406Z,80.3
2022-12-17T09:04:57.823Z,80.8
2022-12-17T09:06:00.522Z,82.7
2022-12-17T09:07:03.291Z,82.9
2022-12-17T09:08:06.405Z,83
2022-12-17T09:09:09.645Z,82.6
2022-12-17T09:10:12.481Z,82.4
2022-12-17T09:11:15.534Z,82.2
2022-12-17T09:12:18.683Z,82.4
2022-12-17T09:13:21.534Z,82.9
2022-12-17T09:14:24.948Z,83
2022-12-17T09:15:27.637Z,82.2
2022-12-17T09:16:30.768Z,82.2
2022-12-17T09:17:34.966Z,81.9
2022-12-17T09:18:37.395Z,82
2022-12-17T09:19:39.811Z,81.6
2022-12-17T09:20:42.582Z,81.4
2022-12-17T09:21:45.292Z,81.1
2022-12-17T09:22:47.939Z,80.9
2022-12-17T09:23:51.419Z,80.5
2022-12-17T09:24:53.997Z,80
2022-12-17T09:25:59.457Z,80.1
2022-12-17T09:27:02.518Z,80.6
2022-12-17T09:28:06.229Z,81
2022-12-17T09:29:09.360Z,80.9
2022-12-17T09:30:12.163Z,81.4
2022-12-17T09:31:15.420Z,81.5
2022-12-17T09:32:19.059Z,81.3
2022-12-17T09:33:23.102Z,81
2022-12-17T09:34:25.802Z,80.8
2022-12-17T09:35:28.220Z,80.2
2022-12-17T09:36:31.622Z,80
2022-12-17T09:37:34.395Z,79.5
2022-12-17T09:38:37.378Z,79
2022-12-17T09:39:40.156Z,78.3
2022-12-17T09:40:42.586Z,77.6
2022-12-17T09:41:45.074Z,77.1
2022-12-17T09:43:00.694Z,76.9
2022-12-17T09:44:04.306Z,76.5
2022-12-17T09:45:07.073Z,75.8
2022-12-17T09:46:09.573Z,76.7
2022-12-17T09:47:12.102Z,76.5
2022-12-17T09:48:15.142Z,76.6
2022-12-17T09:49:19.053Z,75.5
2022-12-17T09:50:22.181Z,75
2022-12-17T09:51:25.439Z,75.2
2022-12-17T09:52:28.495Z,75.1
2022-12-17T09:53:30.987Z,75
2022-12-17T09:54:34.700Z,75
2022-12-17T09:55:37.191Z,75
2022-12-17T09:56:39.329Z,74.9
2022-12-17T09:57:42.373Z,75
2022-12-17T09:58:45.445Z,75.1
2022-12-17T09:59:48.158Z,75.1
2022-12-17T10:00:51.692Z,75.3
2022-12-17T10:02:04.224Z,75.5
2022-12-17T10:03:07.841Z,75.5
2022-12-17T10:04:11.996Z,75.7
2022-12-17T10:05:16.030Z,75.5
2022-12-17T10:06:23.910Z,75.3
2022-12-17T10:07:26.971Z,74.9
2022-12-17T10:08:30.033Z,74.9
2022-12-17T10:09:33.478Z,75.1
2022-12-17T10:10:36.193Z,75.5
2022-12-17T10:11:38.903Z,76.4
2022-12-17T10:12:42.260Z,75.8
2022-12-17T10:13:44.751Z,75.1
2022-12-17T10:14:47.604Z,74.3
2022-12-17T10:15:50.276Z,73.2
2022-12-17T10:16:53.275Z,72.8
2022-12-17T10:17:56.882Z,72.4
2022-12-17T10:18:59.468Z,72.5
2022-12-17T10:20:03.247Z,72.3
2022-12-17T10:21:07.135Z,71.4
2022-12-17T10:22:10.380Z,70.3
2022-12-17T10:23:13.788Z,70.4
2022-12-17T10:24:19.744Z,69.8
2022-12-17T10:25:21.958Z,68.8
2022-12-17T10:26:24.374Z,69.8
2022-12-17T10:27:27.428Z,70.9
2022-12-17T10:28:29.915Z,71.1
2022-12-17T10:29:33.334Z,69.9
2022-12-17T10:30:35.827Z,70.3
2022-12-17T10:31:39.038Z,70.2
2022-12-17T10:32:41.896Z,69
2022-12-17T10:33:45.225Z,74.5
2022-12-17T10:34:47.750Z,86.9
2022-12-17T10:35:50.853Z,85.4
2022-12-17T10:36:54.957Z,78.6
2022-12-17T10:37:57.760Z,66.7
2022-12-17T10:39:01.019Z,63.7
2022-12-17T10:40:03.511Z,63.4
2022-12-17T10:41:06.486Z,64.1
2022-12-17T10:42:09.469Z,64.4
2022-12-17T10:43:12.463Z,64
2022-12-17T10:44:14.880Z,63.7
2022-12-17T10:45:17.927Z,64.9
2022-12-17T10:46:21.234Z,64.9
2022-12-17T10:47:23.910Z,64.8
2022-12-17T10:48:26.890Z,64.2
2022-12-17T10:49:29.863Z,65.9
2022-12-17T10:50:32.848Z,65.6
2022-12-17T10:51:35.700Z,65.6
2022-12-17T10:52:39.522Z,66.4
2022-12-17T10:53:42.570Z,66.4
2022-12-17T10:54:50.981Z,66
2022-12-17T10:55:54.025Z,66.2
2022-12-17T10:56:57.087Z,66.2
2022-12-17T10:58:00.177Z,65.8
2022-12-17T10:59:03.174Z,65.4
2022-12-17T11:00:05.949Z,65.2
2022-12-17T11:01:09.029Z,64.9
2022-12-17T11:02:12.766Z,64.6
2022-12-17T11:03:17.197Z,64.6
2022-12-17T11:04:19.960Z,64.5
2022-12-17T11:05:22.663Z,64.5
2022-12-17T11:06:25.641Z,64.8
2022-12-17T11:07:29.061Z,63.8
2022-12-17T11:08:32.919Z,63.6
2022-12-17T11:09:36.733Z,63.8
2022-12-17T11:10:39.445Z,62.9
2022-12-17T11:11:42.696Z,63
2022-12-17T11:12:45.748Z,62.8
2022-12-17T11:13:49.007Z,62.5
2022-12-17T11:14:52.006Z,62
2022-12-17T11:15:54.589Z,62.5
2022-12-17T11:16:57.404Z,62.3
2022-12-17T11:18:00.464Z,62.6
2022-12-17T11:19:03.162Z,62.7
2022-12-17T11:20:05.310Z,62.4
2022-12-17T11:21:08.010Z,62.4
2022-12-17T11:22:11.627Z,62
2022-12-17T11:23:14.840Z,61.7
2022-12-17T11:24:23.913Z,61.6
2022-12-17T11:25:26.879Z,61.7
2022-12-17T11:26:29.649Z,61.1
2022-12-17T11:27:32.130Z,60.6
2022-12-17T11:28:35.205Z,60.7
2022-12-17T11:29:38.046Z,60.8
2022-12-17T11:30:40.584Z,61.3
2022-12-17T11:31:44.010Z,61
2022-12-17T11:32:46.935Z,61.4
2022-12-17T11:33:49.432Z,61.3
2022-12-17T11:34:52.785Z,61.6
2022-12-17T11:35:55.659Z,61.1
2022-12-17T11:36:58.372Z,61.1
2022-12-17T11:38:00.545Z,61.8
2022-12-17T11:39:03.599Z,61.8
2022-12-17T11:40:07.510Z,61.4
2022-12-17T11:41:10.365Z,60.8
2022-12-17T11:42:13.415Z,60.8
2022-12-17T11:43:15.634Z,60.6
2022-12-17T11:44:18.310Z,60.8
2022-12-17T11:45:21.393Z,60.8
2022-12-17T11:46:24.615Z,60.8
2022-12-17T11:47:28.119Z,60.2
2022-12-17T11:48:31.388Z,60.8
2022-12-17T11:49:34.362Z,60.2
2022-12-17T11:50:37.064Z,60
2022-12-17T11:51:40.318Z,60.3
2022-12-17T11:52:43.370Z,59.9
2022-12-17T11:53:46.421Z,60.4
2022-12-17T11:54:49.606Z,60.6
2022-12-17T11:55:53.440Z,60.8
2022-12-17T11:56:56.215Z,59.9
2022-12-17T11:57:58.924Z,59.1
2022-12-17T11:59:01.358Z,58.6
2022-12-17T12:00:05.758Z,59.6
2022-12-17T12:01:07.983Z,59
2022-12-17T12:02:11.034Z,59.7
2022-12-17T12:03:14.071Z,59
2022-12-17T12:04:17.014Z,59.3
2022-12-17T12:05:19.984Z,59.8
2022-12-17T12:06:23.044Z,59.9
2022-12-17T12:07:24.631Z,58.7
2022-12-17T12:08:27.679Z,59.5
2022-12-17T12:09:31.362Z,58.5
2022-12-17T12:10:34.795Z,59.1
2022-12-17T12:11:38.604Z,59.6
2022-12-17T12:12:42.051Z,59
2022-12-17T12:13:45.101Z,59
2022-12-17T12:14:47.870Z,59.5
2022-12-17T12:15:50.985Z,60
2022-12-17T12:16:55.425Z,60.4
2022-12-17T12:17:58.597Z,59.7
2022-12-17T12:19:01.737Z,59.6
2022-12-17T12:20:04.269Z,59.4
2022-12-17T12:21:06.783Z,59.4
2022-12-17T12:22:09.213Z,59.2
2022-12-17T12:23:13.295Z,59.7
2022-12-17T12:24:15.993Z,59.3
2022-12-17T12:25:19.063Z,59.7
2022-12-17T12:26:22.164Z,59.4
2022-12-17T12:27:26.001Z,60.2
2022-12-17T12:28:29.255Z,60.3
2022-12-17T12:29:32.035Z,60.5
2022-12-17T12:30:34.541Z,60.5
2022-12-17T12:31:38.058Z,60.8
2022-12-17T12:32:41.243Z,60.9
2022-12-17T12:33:43.468Z,61.7
2022-12-17T12:34:46.293Z,62.6
2022-12-17T12:35:49.729Z,63.2
2022-12-17T12:36:52.876Z,63.3
2022-12-17T12:37:56.480Z,63.5
2022-12-17T12:39:00.375Z,63.7
2022-12-17T12:40:03.810Z,63.3
2022-12-17T12:41:06.299Z,63.6
2022-12-17T12:42:09.181Z,64.4
2022-12-17T12:43:13.150Z,64.5
2022-12-17T12:44:15.858Z,65.1
2022-12-17T12:45:18.421Z,65.5
2022-12-17T12:46:20.827Z,65.8
2022-12-17T12:47:23.266Z,65.4
2022-12-17T12:48:26.793Z,66.1
2022-12-17T12:49:29.493Z,66.6
2022-12-17T12:50:32.962Z,67.1
2022-12-17T12:51:35.482Z,67.4
2022-12-17T12:52:37.905Z,67.2
2022-12-17T12:53:41.235Z,67.3
2022-12-17T12:54:44.865Z,68
2022-12-17T12:55:47.637Z,68.5
2022-12-17T12:56:50.327Z,68.8
2022-12-17T12:57:53.523Z,68.7
2022-12-17T12:58:57.499Z,68.8
2022-12-17T13:00:00.693Z,69
2022-12-17T13:01:03.778Z,68.6
2022-12-17T13:02:08.435Z,69
2022-12-17T13:03:12.036Z,69.2
2022-12-17T13:04:15.162Z,69.7
2022-12-17T13:05:18.595Z,70.2
2022-12-17T13:06:21.017Z,70.4
2022-12-17T13:07:24.454Z,70.5
2022-12-17T13:08:27.157Z,70.6
2022-12-17T13:09:36.407Z,70.7
2022-12-17T13:10:39.174Z,71.1
2022-12-17T13:11:42.612Z,71.2
2022-12-17T13:12:45.202Z,71.2
2022-12-17T13:13:48.318Z,71.2
2022-12-17T13:14:52.474Z,71.3
2022-12-17T13:15:55.325Z,71.5
2022-12-17T13:16:58.320Z,71.6
2022-12-17T13:18:01.383Z,71.9
2022-12-17T13:19:03.806Z,72
2022-12-17T13:20:07.062Z,72
2022-12-17T13:21:10.640Z,72.3
2022-12-17T13:22:15.666Z,72.6
2022-12-17T13:23:26.880Z,72.7
2022-12-17T13:24:30.490Z,72.8
2022-12-17T13:25:33.288Z,72.8
2022-12-17T13:26:35.713Z,72.9
2022-12-17T13:27:38.721Z,73.1
2022-12-17T13:28:42.810Z,73.1
2022-12-17T13:29:46.521Z,73.4
2022-12-17T13:30:50.480Z,73.5
2022-12-17T13:31:53.630Z,73.6
2022-12-17T13:32:57.024Z,73.8
2022-12-17T13:34:00.800Z,73.9
2022-12-17T13:35:11.369Z,73.9
2022-12-17T13:36:13.867Z,73.9
2022-12-17T13:37:17.568Z,74
2022-12-17T13:38:20.810Z,74.3
2022-12-17T13:39:23.868Z,74.3
2022-12-17T13:40:26.871Z,74.4
2022-12-17T13:41:30.309Z,74.5
2022-12-17T13:42:33.746Z,74.6
2022-12-17T13:43:37.008Z,74.7
2022-12-17T13:44:40.079Z,74.7
2022-12-17T13:45:43.294Z,74.8
2022-12-17T13:46:48.953Z,74.8
2022-12-17T13:47:52.957Z,75.1
2022-12-17T13:48:56.324Z,75.1
2022-12-17T13:50:37.279Z,75.4
2022-12-17T13:51:40.627Z,75.7
2022-12-17T13:52:44.046Z,75.9
2022-12-17T13:53:47.117Z,76.1
2022-12-17T13:54:49.916Z,76.3
2022-12-17T13:55:53.253Z,76.4
2022-12-17T13:56:55.955Z,76.6
2022-12-17T13:57:59.671Z,76.8
2022-12-17T13:59:10.610Z,76.9
2022-12-17T14:00:13.303Z,77
2022-12-17T14:01:17.132Z,77.3
2022-12-17T14:02:22.180Z,77.4
2022-12-17T14:04:08.175Z,77.5
2022-12-17T14:05:12.667Z,77.7
2022-12-17T14:06:15.512Z,77.6
2022-12-17T14:07:18.597Z,77.4
2022-12-17T14:08:21.655Z,77.6
2022-12-17T14:09:24.632Z,77.9